Time;durP1;ratioP1;P1;durP2;ratioP2;P2;SDS_P1;SDS_P2;PMS_P1;PMS_P2;Temp;Humidity;BMP_temperature;BMP_pressure;BME280_temperature;BME280_humidity;BME280_pressure;Samples;Min_cycle;Max_cycle;Signal;HPM_P1;HPM_P2
2023/02/05 00:01:43;;;;;;;8.27;5.13;;;;;;;-0.42;82.64;98158.66;5029751;28;20054;-85
2023/02/05 00:04:11;;;;;;;8.40;5.40;;;;;;;-0.43;82.77;98156.19;5040401;28;20050;-84
2023/02/05 00:06:39;;;;;;;7.95;5.05;;;;;;;-0.45;82.83;98158.25;5015948;28;20068;-83
2023/02/05 00:09:06;;;;;;;10.00;5.78;;;;;;;-0.47;83.05;98162.97;5022089;28;20037;-83
2023/02/05 00:11:36;;;;;;;10.25;5.30;;;;;;;-0.48;83.57;98162.16;5033549;28;20060;-83
2023/02/05 00:14:04;;;;;;;10.10;5.78;;;;;;;-0.51;83.70;98161.75;5026541;28;20133;-82
2023/02/05 00:16:32;;;;;;;13.25;6.07;;;;;;;-0.55;83.88;98159.47;5039259;28;20136;-84
2023/02/05 00:18:59;;;;;;;7.93;5.60;;;;;;;-0.59;84.07;98160.06;5035555;28;20457;-84
2023/02/05 00:21:28;;;;;;;8.73;5.85;;;;;;;-0.63;84.34;98161.50;5034291;28;20049;-83
2023/02/05 00:23:55;;;;;;;9.73;5.68;;;;;;;-0.68;84.25;98158.59;5040247;28;20114;-85
2023/02/05 00:26:22;;;;;;;12.60;6.75;;;;;;;-0.69;84.60;98162.31;5018107;28;20053;-81
2023/02/05 00:28:50;;;;;;;9.85;6.10;;;;;;;-0.69;84.46;98157.78;5020522;28;20053;-85
2023/02/05 00:31:20;;;;;;;10.25;5.65;;;;;;;-0.69;84.55;98156.97;5041594;28;20041;-86
2023/02/05 00:33:48;;;;;;;10.40;6.07;;;;;;;-0.70;84.76;98156.13;5038819;28;20061;-83
2023/02/05 00:36:16;;;;;;;7.20;4.70;;;;;;;-0.73;84.79;98159.22;5028715;28;20467;-82
2023/02/05 00:38:46;;;;;;;8.88;5.18;;;;;;;-0.77;84.86;98159.84;5031299;28;20511;-82
2023/02/05 00:41:14;;;;;;;9.93;5.85;;;;;;;-0.81;84.84;98168.25;5012467;28;20053;-82
2023/02/05 00:43:42;;;;;;;8.85;5.55;;;;;;;-0.85;84.86;98169.66;5024092;28;20072;-83
2023/02/05 00:46:11;;;;;;;11.02;6.55;;;;;;;-0.83;84.85;98172.16;5039879;28;20124;-82
2023/02/05 00:48:38;;;;;;;9.00;5.22;;;;;;;-0.80;84.57;98172.56;5034785;28;20049;-80
2023/02/05 00:51:06;;;;;;;8.77;5.68;;;;;;;-0.76;84.30;98180.19;5030169;28;20046;-83
2023/02/05 00:53:33;;;;;;;8.75;5.50;;;;;;;-0.76;84.11;98177.53;5030221;28;20050;-85
2023/02/05 00:56:02;;;;;;;9.30;5.63;;;;;;;-0.74;84.17;98175.47;5023289;28;20047;-84
2023/02/05 00:58:30;;;;;;;9.15;5.63;;;;;;;-0.74;84.18;98172.78;5014980;28;20102;-82
2023/02/05 01:00:58;;;;;;;9.68;5.82;;;;;;;-0.76;83.83;98172.19;5031097;28;20053;-83
2023/02/05 01:03:25;;;;;;;10.00;5.93;;;;;;;-0.81;83.97;98176.28;5014228;28;20117;-85
2023/02/05 01:05:52;;;;;;;10.52;6.25;;;;;;;-0.82;84.22;98185.31;5032076;28;20119;-87
2023/02/05 01:08:19;;;;;;;9.48;6.03;;;;;;;-0.84;84.11;98187.34;5038633;28;20054;-83
2023/02/05 01:10:48;;;;;;;9.13;5.25;;;;;;;-0.83;84.32;98175.66;5035749;28;20053;-82
2023/02/05 01:13:17;;;;;;;9.93;5.85;;;;;;;-0.77;84.14;98167.84;5035390;28;20054;-82
2023/02/05 01:15:45;;;;;;;10.48;5.90;;;;;;;-0.75;84.36;98173.81;5035651;28;20049;-87
2023/02/05 01:18:12;;;;;;;12.95;6.30;;;;;;;-0.72;84.46;98181.47;5034511;28;20136;-84
2023/02/05 01:20:41;;;;;;;9.55;5.97;;;;;;;-0.69;84.88;98163.13;5039967;28;20106;-85
2023/02/05 01:23:08;;;;;;;10.57;6.00;;;;;;;-0.67;84.67;98162.94;5025983;28;20058;-81
2023/02/05 01:25:35;;;;;;;11.30;6.50;;;;;;;-0.67;84.77;98161.09;5011397;28;20414;-81
2023/02/05 01:28:02;;;;;;;7.28;5.05;;;;;;;-0.65;84.99;98163.56;5033316;28;20041;-79
2023/02/05 01:30:30;;;;;;;7.80;5.18;;;;;;;-0.64;85.20;98159.84;5042890;28;20109;-85
2023/02/05 01:32:57;;;;;;;9.13;5.75;;;;;;;-0.64;85.65;98149.16;5038681;28;20579;-87
2023/02/05 01:35:23;;;;;;;9.32;5.53;;;;;;;-0.65;85.84;98148.31;5037052;28;20117;-87
2023/02/05 01:37:50;;;;;;;8.85;5.45;;;;;;;-0.67;86.01;98144.22;5022938;28;20042;-86
2023/02/05 01:40:18;;;;;;;10.75;6.25;;;;;;;-0.67;86.38;98144.22;5030170;28;20046;-84
2023/02/05 01:42:45;;;;;;;10.32;6.10;;;;;;;-0.66;86.24;98152.03;5042054;28;20052;-82
2023/02/05 01:45:49;;;;;;;9.23;5.70;;;;;;;-0.68;86.22;98147.91;5024087;28;20064;-87
2023/02/05 01:48:20;;;;;;;13.70;6.15;;;;;;;-0.70;86.49;98152.63;5027086;28;20041;-82
2023/02/05 01:50:53;;;;;;;13.52;6.97;;;;;;;-0.70;86.57;98147.28;5018505;28;20493;-84
2023/02/05 01:53:24;;;;;;;14.77;7.05;;;;;;;-0.69;86.75;98148.94;5031342;28;20603;-84
2023/02/05 01:58:32;;;;;;;12.70;7.85;;;;;;;-0.66;86.20;98149.38;5055200;28;20508;-81
2023/02/05 02:00:59;;;;;;;11.75;6.78;;;;;;;-0.67;85.99;98158.41;5077517;28;20124;-81
2023/02/05 02:03:30;;;;;;;9.80;5.75;;;;;;;-0.75;86.18;98155.09;5061748;28;20055;-82
2023/02/05 02:05:57;;;;;;;9.23;5.95;;;;;;;-0.87;86.53;98155.69;5059687;28;20065;-81
2023/02/05 02:08:25;;;;;;;10.48;5.50;;;;;;;-0.91;86.84;98153.59;5061768;28;20053;-81
2023/02/05 02:10:54;;;;;;;8.73;5.60;;;;;;;-0.87;87.05;98158.34;5064517;28;20061;-81
2023/02/05 02:13:22;;;;;;;9.55;5.65;;;;;;;-1.00;88.07;98147.59;5037875;28;20048;-81
2023/02/05 02:15:50;;;;;;;9.43;5.18;;;;;;;-0.87;87.59;98136.97;5061360;28;20048;-81
2023/02/05 02:18:28;;;;;;;9.20;4.72;;;;;;;-0.79;86.99;98147.47;5036880;28;20068;-81
2023/02/05 02:21:25;;;;;;;8.38;5.28;;;;;;;-0.76;86.97;98140.91;5072229;28;20059;-83
2023/02/05 02:24:17;;;;;;;8.43;4.88;;;;;;;-0.76;87.36;98134.72;5054456;28;20048;-82
2023/02/05 02:27:00;;;;;;;8.63;5.45;;;;;;;-0.77;87.57;98127.75;5068950;28;20094;-81
2023/02/05 02:29:37;;;;;;;8.07;5.38;;;;;;;-0.84;87.76;98122.34;5066639;28;20052;-81
2023/02/05 02:32:13;;;;;;;8.50;5.20;;;;;;;-0.87;88.13;98125.44;5068777;28;20132;-79
2023/02/05 02:34:45;;;;;;;8.32;5.13;;;;;;;-0.91;88.27;98125.00;5054867;28;20056;-81
2023/02/05 02:37:17;;;;;;;8.77;4.75;;;;;;;-0.93;88.40;98124.41;5053328;28;20045;-81
2023/02/05 02:39:53;;;;;;;8.60;5.18;;;;;;;-0.93;88.65;98129.75;5069970;28;20055;-81
2023/02/05 02:42:28;;;;;;;8.70;5.18;;;;;;;-0.94;88.58;98122.75;5068150;28;20493;-81
2023/02/05 02:45:00;;;;;;;8.93;5.53;;;;;;;-0.95;88.48;98126.44;5058889;28;20045;-81
2023/02/05 02:47:32;;;;;;;8.85;5.40;;;;;;;-0.97;88.11;98133.03;5119106;23;20045;-81
2023/02/05 02:50:03;;;;;;;7.95;5.00;;;;;;;-1.02;88.42;98125.59;5072472;28;20052;-81
2023/02/05 02:52:35;;;;;;;7.80;4.82;;;;;;;-1.06;88.40;98121.66;5080816;28;20656;-80
2023/02/05 02:55:08;;;;;;;8.80;5.03;;;;;;;-1.10;88.74;98115.06;5090035;28;20032;-78
2023/02/05 02:57:39;;;;;;;8.35;5.20;;;;;;;-1.13;88.91;98107.47;5078646;28;20037;-81
2023/02/05 03:00:11;;;;;;;8.48;5.00;;;;;;;-1.16;89.12;98110.53;5067699;28;20085;-81
2023/02/05 03:02:41;;;;;;;10.35;5.10;;;;;;;-1.21;89.08;98112.97;5084264;28;20048;-80
2023/02/05 03:05:11;;;;;;;9.27;5.65;;;;;;;-1.24;88.96;98110.72;5073095;28;20128;-80
2023/02/05 03:07:42;;;;;;;8.77;5.63;;;;;;;-1.29;89.43;98113.16;5072364;28;20068;-80
2023/02/05 03:10:14;;;;;;;8.63;5.13;;;;;;;-1.35;89.35;98109.44;5076869;28;20047;-82
2023/02/05 03:12:41;;;;;;;9.88;5.47;;;;;;;-1.39;89.33;98103.66;5061285;28;20104;-79
2023/02/05 03:15:11;;;;;;;8.50;5.43;;;;;;;-1.42;89.51;98109.38;5058960;28;20049;-82
2023/02/05 03:17:38;;;;;;;8.30;5.05;;;;;;;-1.45;89.56;98099.13;5066267;28;20051;-80
2023/02/05 03:20:11;;;;;;;9.23;5.53;;;;;;;-1.46;89.70;98096.63;5068823;28;20053;-83
2023/02/05 03:22:38;;;;;;;10.13;5.45;;;;;;;-1.48;89.99;98094.16;5076552;28;20047;-81
2023/02/05 03:25:05;;;;;;;7.97;5.75;;;;;;;-1.50;90.16;98090.88;5072344;28;20037;-80
2023/02/05 03:27:32;;;;;;;10.43;5.70;;;;;;;-1.51;90.30;98094.56;5076117;28;20558;-80
2023/02/05 03:29:59;;;;;;;10.27;5.47;;;;;;;-1.55;90.52;98093.31;5067130;28;20048;-80
2023/02/05 03:32:38;;;;;;;9.48;5.30;;;;;;;-1.58;90.67;98080.34;5057821;28;20040;-80
2023/02/05 03:35:18;;;;;;;8.93;5.60;;;;;;;-1.60;91.02;98077.06;5062248;28;20060;-81
2023/02/05 03:37:55;;;;;;;9.15;6.22;;;;;;;-1.64;91.11;98083.81;5039323;28;20076;-80
2023/02/05 03:40:29;;;;;;;9.07;5.68;;;;;;;-1.67;91.51;98062.81;5053691;28;20049;-82
2023/02/05 03:43:03;;;;;;;8.23;5.63;;;;;;;-1.70;91.76;98071.25;5034893;28;20052;-82
2023/02/05 03:45:43;;;;;;;9.40;5.90;;;;;;;-1.73;91.96;98080.47;5043496;28;20053;-82
2023/02/05 03:48:28;;;;;;;10.00;5.88;;;;;;;-1.73;92.15;98082.31;5058611;28;20041;-82
2023/02/05 03:51:01;;;;;;;9.48;5.70;;;;;;;-1.76;91.97;98077.38;5041743;28;20049;-81
2023/02/05 03:53:34;;;;;;;8.25;5.38;;;;;;;-1.77;91.92;98079.22;5041100;28;20045;-81
2023/02/05 03:56:05;;;;;;;8.70;5.53;;;;;;;-1.78;92.01;98080.22;5044808;28;20056;-79
2023/02/05 03:58:36;;;;;;;10.98;5.90;;;;;;;-1.77;91.96;98087.25;5045287;28;20064;-79
2023/02/05 04:01:04;;;;;;;11.13;6.15;;;;;;;-1.77;91.83;98084.56;5046288;28;20042;-79
2023/02/05 04:03:32;;;;;;;10.45;6.10;;;;;;;-1.77;91.82;98089.09;5026635;28;20057;-78
2023/02/05 04:05:58;;;;;;;7.25;5.45;;;;;;;-1.80;91.56;98092.16;5044820;28;20076;-81
2023/02/05 04:08:25;;;;;;;9.68;5.72;;;;;;;-1.82;91.42;98089.69;5047045;28;20531;-82
2023/02/05 04:10:51;;;;;;;10.52;5.95;;;;;;;-1.85;91.22;98085.53;5047853;28;20055;-81
2023/02/05 04:13:18;;;;;;;7.13;4.88;;;;;;;-1.89;90.83;98089.63;5039787;28;20052;-81
2023/02/05 04:15:45;;;;;;;9.02;5.63;;;;;;;-1.94;90.98;98086.72;5044979;28;20041;-82
2023/02/05 04:18:11;;;;;;;9.50;5.55;;;;;;;-1.97;91.15;98079.09;5041478;28;20045;-81
2023/02/05 04:20:39;;;;;;;9.13;5.53;;;;;;;-1.95;91.42;98078.91;5027780;28;20041;-81
2023/02/05 04:23:05;;;;;;;10.50;6.40;;;;;;;-1.95;91.58;98084.25;5033938;28;20057;-78
2023/02/05 04:25:32;;;;;;;8.50;5.45;;;;;;;-1.96;91.53;98083.44;5032471;28;20057;-78
2023/02/05 04:27:59;;;;;;;10.43;5.68;;;;;;;-1.95;91.47;98071.72;5032009;28;20485;-79
2023/02/05 04:30:25;;;;;;;9.90;5.95;;;;;;;-1.92;91.27;98070.53;5035756;28;20053;-78
2023/02/05 04:32:52;;;;;;;10.95;6.25;;;;;;;-1.89;91.56;98068.25;5052479;28;20052;-79
2023/02/05 04:35:18;;;;;;;9.48;5.78;;;;;;;-1.87;91.44;98068.91;5034470;28;20053;-79
2023/02/05 04:37:46;;;;;;;9.73;6.07;;;;;;;-1.85;91.67;98064.19;5037681;28;20039;-80
2023/02/05 04:40:13;;;;;;;8.65;5.13;;;;;;;-1.84;91.62;98057.81;5036638;28;20556;-81
2023/02/05 04:42:39;;;;;;;10.43;5.35;;;;;;;-1.85;91.78;98055.34;5032403;28;20048;-80
2023/02/05 04:45:06;;;;;;;8.40;5.40;;;;;;;-1.86;92.16;98049.19;5039720;28;20061;-82
2023/02/05 04:47:33;;;;;;;8.73;5.47;;;;;;;-1.85;92.37;98045.50;5031685;28;20429;-80
2023/02/05 04:50:00;;;;;;;11.70;5.65;;;;;;;-1.80;92.48;98041.41;5023989;28;20045;-79
2023/02/05 04:52:26;;;;;;;9.00;5.25;;;;;;;-1.74;92.52;98045.94;5025168;28;20096;-81
2023/02/05 04:54:54;;;;;;;10.20;6.03;;;;;;;-1.72;91.86;98039.41;5039647;28;20419;-81
2023/02/05 04:57:23;;;;;;;8.35;5.53;;;;;;;-1.69;91.90;98035.50;5051588;28;20049;-80
2023/02/05 04:59:49;;;;;;;9.90;5.95;;;;;;;-1.68;91.65;98040.63;5043739;28;20119;-79
2023/02/05 05:02:16;;;;;;;9.98;5.57;;;;;;;-1.72;91.28;98035.88;5034889;28;20060;-78
2023/02/05 05:04:42;;;;;;;8.82;5.05;;;;;;;-1.74;91.08;98033.41;5039890;28;20049;-78
2023/02/05 05:07:09;;;;;;;7.68;5.18;;;;;;;-1.74;91.00;98040.63;5045200;28;20045;-79
2023/02/05 05:09:36;;;;;;;8.50;5.03;;;;;;;-1.73;91.16;98039.59;5049893;28;20072;-78
2023/02/05 05:12:04;;;;;;;9.38;6.10;;;;;;;-1.71;91.35;98032.22;5043345;28;20052;-78
2023/02/05 05:14:31;;;;;;;8.98;5.53;;;;;;;-1.70;91.46;98023.19;5041618;28;20050;-78
2023/02/05 05:16:57;;;;;;;8.88;5.53;;;;;;;-1.66;91.39;98027.09;5031081;28;20048;-79
2023/02/05 05:19:24;;;;;;;8.18;5.57;;;;;;;-1.64;91.60;98025.03;5023818;28;20042;-79
2023/02/05 05:21:51;;;;;;;10.13;6.07;;;;;;;-1.61;91.80;98030.81;5025606;28;20567;-78
2023/02/05 05:24:18;;;;;;;10.90;5.95;;;;;;;-1.57;92.01;98036.56;5038114;28;20072;-78
2023/02/05 05:26:45;;;;;;;10.50;5.88;;;;;;;-1.55;92.13;98034.53;5036235;28;20049;-79
2023/02/05 05:29:14;;;;;;;11.32;6.18;;;;;;;-1.53;92.34;98031.66;5033383;28;20041;-78
2023/02/05 05:31:41;;;;;;;12.73;6.97;;;;;;;-1.50;92.48;98032.09;5038055;28;20057;-79
2023/02/05 05:34:08;;;;;;;11.00;6.53;;;;;;;-1.50;92.50;98032.09;5048832;28;20046;-78
2023/02/05 05:36:35;;;;;;;11.82;6.70;;;;;;;-1.55;92.38;98031.88;5048703;28;20541;-79
2023/02/05 05:44:27;;;;;;;11.23;6.28;;;;;;;-1.48;92.37;98034.56;5035381;28;20072;-78
2023/02/05 05:46:54;;;;;;;9.23;5.90;;;;;;;-1.48;92.16;98029.22;5044348;28;20052;-78
2023/02/05 05:49:20;;;;;;;9.13;5.70;;;;;;;-1.45;92.18;98032.31;5040072;28;20048;-78
2023/02/05 05:51:47;;;;;;;8.23;4.88;;;;;;;-1.43;92.35;98027.59;5036270;28;20046;-78
2023/02/05 05:54:13;;;;;;;8.80;5.10;;;;;;;-1.38;92.48;98029.66;5033705;28;20124;-77
2023/02/05 05:56:40;;;;;;;7.60;5.35;;;;;;;-1.32;92.46;98040.38;5046603;28;20049;-77
2023/02/05 05:59:06;;;;;;;8.45;5.10;;;;;;;-1.26;92.24;98043.25;5031337;28;20730;-78
2023/02/05 06:01:35;;;;;;;9.55;5.47;;;;;;;-1.19;92.32;98054.81;5025380;28;20136;-77
2023/02/05 06:04:02;;;;;;;12.48;6.57;;;;;;;-1.19;91.51;98057.47;5031370;28;20060;-79
2023/02/05 06:06:29;;;;;;;11.23;6.63;;;;;;;-1.19;91.14;98052.97;5040118;28;20045;-79
2023/02/05 06:08:55;;;;;;;8.75;5.60;;;;;;;-1.14;91.20;98047.00;5024503;28;20068;-79
2023/02/05 06:11:22;;;;;;;10.55;6.10;;;;;;;-1.12;91.07;98045.78;5041468;28;20048;-78
2023/02/05 06:13:49;;;;;;;9.65;5.82;;;;;;;-1.12;90.93;98050.28;5037036;28;20501;-78
2023/02/05 06:16:15;;;;;;;10.00;5.93;;;;;;;-1.12;91.14;98044.94;5040274;28;20052;-77
2023/02/05 06:18:43;;;;;;;11.32;6.10;;;;;;;-1.12;91.14;98040.41;5037584;28;20052;-78
2023/02/05 06:21:10;;;;;;;11.75;6.22;;;;;;;-1.10;91.30;98037.53;5038039;28;20041;-79
2023/02/05 06:23:36;;;;;;;10.63;6.32;;;;;;;-1.09;91.48;98033.88;5037684;28;20412;-79
2023/02/05 06:26:03;;;;;;;10.13;6.03;;;;;;;-1.08;91.23;98046.19;5038692;28;20421;-79
2023/02/05 06:28:29;;;;;;;13.20;7.22;;;;;;;-1.11;91.01;98046.59;5039093;28;20049;-79
2023/02/05 06:30:56;;;;;;;13.30;7.45;;;;;;;-1.18;91.01;98057.28;5030067;28;20041;-80
2023/02/05 06:33:22;;;;;;;13.05;7.18;;;;;;;-1.19;90.89;98054.81;5033814;28;20059;-80
2023/02/05 06:35:50;;;;;;;14.27;8.23;;;;;;;-1.26;90.58;98056.63;5036061;28;20049;-78
2023/02/05 06:38:17;;;;;;;12.30;7.18;;;;;;;-1.30;90.83;98056.22;5041002;28;20041;-78
2023/02/05 06:40:43;;;;;;;9.60;6.25;;;;;;;-1.35;90.96;98062.16;5042975;28;20053;-77
2023/02/05 06:43:10;;;;;;;10.20;6.63;;;;;;;-1.39;91.24;98060.09;5040150;28;20033;-76
2023/02/05 06:45:37;;;;;;;10.60;6.38;;;;;;;-1.43;91.34;98065.00;5035657;28;20405;-77
2023/02/05 06:48:03;;;;;;;11.55;6.80;;;;;;;-1.46;91.29;98069.91;5027241;28;20513;-77
2023/02/05 06:50:30;;;;;;;11.48;6.25;;;;;;;-1.53;91.18;98061.88;5038488;28;20624;-77
2023/02/05 06:52:58;;;;;;;11.68;7.00;;;;;;;-1.59;91.27;98066.16;5037640;28;20071;-78
2023/02/05 06:55:25;;;;;;;11.93;7.07;;;;;;;-1.64;91.53;98059.75;5036974;28;20425;-78
2023/02/05 06:57:51;;;;;;;12.32;7.10;;;;;;;-1.69;91.43;98064.88;5040915;28;20091;-78
2023/02/05 07:00:18;;;;;;;13.63;7.35;;;;;;;-1.75;91.26;98073.69;5029619;28;20379;-78
2023/02/05 07:02:45;;;;;;;14.27;7.45;;;;;;;-1.81;91.21;98071.81;5035832;28;20674;-77
2023/02/05 07:05:11;;;;;;;14.73;7.30;;;;;;;-1.84;91.43;98073.84;5030201;28;20049;-76
2023/02/05 07:07:38;;;;;;;11.38;6.88;;;;;;;-1.87;91.46;98068.91;5040619;28;20053;-77
2023/02/05 07:10:07;;;;;;;14.05;7.85;;;;;;;-1.85;91.76;98066.84;5045063;28;20309;-77
2023/02/05 07:12:34;;;;;;;13.45;7.72;;;;;;;-1.81;92.11;98061.13;5030855;28;20053;-76
2023/02/05 07:15:01;;;;;;;12.68;7.63;;;;;;;-1.81;92.29;98061.13;5026918;28;20045;-76
2023/02/05 07:17:27;;;;;;;14.00;7.53;;;;;;;-1.80;92.44;98062.78;5026155;28;20049;-76
2023/02/05 07:19:54;;;;;;;11.45;7.47;;;;;;;-1.79;92.44;98069.75;5026411;28;20056;-77
2023/02/05 07:22:20;;;;;;;13.43;8.00;;;;;;;-1.79;92.54;98062.56;5034795;28;20041;-76
2023/02/05 07:24:47;;;;;;;13.27;7.80;;;;;;;-1.77;92.49;98062.38;5031741;28;20416;-76
2023/02/05 07:27:15;;;;;;;12.45;7.70;;;;;;;-1.74;92.58;98075.31;5021409;28;20349;-76
2023/02/05 07:29:43;;;;;;;14.35;8.13;;;;;;;-1.68;92.71;98061.19;5026200;28;20045;-78
2023/02/05 07:32:09;;;;;;;13.23;7.82;;;;;;;-1.49;92.83;98059.63;5026861;28;20072;-79
2023/02/05 07:34:36;;;;;;;14.40;8.25;;;;;;;-1.34;92.64;98063.81;5026823;28;20053;-78
2023/02/05 07:37:02;;;;;;;11.55;7.65;;;;;;;-1.32;92.81;98056.41;5027542;28;20041;-78
2023/02/05 07:39:29;;;;;;;15.90;7.90;;;;;;;-1.32;92.74;98060.91;5025690;28;20049;-78
2023/02/05 07:41:55;;;;;;;15.82;8.95;;;;;;;-1.34;92.57;98057.63;5020007;28;20045;-78
2023/02/05 07:44:23;;;;;;;14.32;8.13;;;;;;;-1.36;92.26;98052.50;5029493;28;20685;-77
2023/02/05 07:46:50;;;;;;;13.73;7.72;;;;;;;-1.35;92.00;98050.66;5029855;28;20056;-78
2023/02/05 07:49:18;;;;;;;17.50;8.07;;;;;;;-1.33;92.07;98059.28;5035147;28;20049;-81
2023/02/05 07:51:45;;;;;;;12.77;8.07;;;;;;;-1.36;91.44;98057.84;5037641;28;20062;-78
2023/02/05 07:54:14;;;;;;;12.48;8.02;;;;;;;-1.38;91.49;98057.19;5033229;28;20045;-80
2023/02/05 07:56:41;;;;;;;13.30;8.05;;;;;;;-1.35;91.52;98056.81;5052437;28;20049;-81
2023/02/05 07:59:08;;;;;;;16.70;9.02;;;;;;;-1.25;91.77;98055.59;5043435;28;20059;-82
2023/02/05 08:01:36;;;;;;;13.02;8.20;;;;;;;-1.15;92.11;98051.53;5052683;28;20072;-82
2023/02/05 08:04:03;;;;;;;13.80;8.88;;;;;;;-1.04;91.95;98047.44;5052361;28;20041;-81
2023/02/05 08:06:30;;;;;;;14.20;8.75;;;;;;;-0.93;91.80;98059.41;5059729;28;20042;-81
2023/02/05 08:08:57;;;;;;;14.43;9.32;;;;;;;-0.90;91.64;98059.78;5035145;28;20053;-79
2023/02/05 08:11:23;;;;;;;15.73;9.32;;;;;;;-0.81;91.22;98066.59;5054832;28;20050;-82
2023/02/05 08:13:50;;;;;;;13.75;8.82;;;;;;;-0.75;91.01;98056.94;5046533;28;20052;-80
2023/02/05 08:16:17;;;;;;;12.93;7.97;;;;;;;-0.64;90.78;98064.34;5036896;28;20527;-80
2023/02/05 08:18:49;;;;;;;12.20;8.50;;;;;;;-0.58;90.56;98063.53;5043972;28;20042;-80
2023/02/05 08:21:16;;;;;;;14.98;7.93;;;;;;;-0.45;89.73;98068.09;5031211;28;20045;-80
2023/02/05 08:23:43;;;;;;;11.93;8.15;;;;;;;-0.30;89.71;98066.03;5039558;28;20772;-81
2023/02/05 08:26:10;;;;;;;12.52;8.27;;;;;;;-0.17;88.54;98059.81;5040420;28;20046;-80
2023/02/05 08:28:37;;;;;;;12.73;7.70;;;;;;;0.08;87.34;98056.50;5035981;28;20148;-79
2023/02/05 08:31:09;;;;;;;12.55;7.95;;;;;;;0.28;86.48;98057.28;5048093;28;20057;-77
2023/02/05 08:33:35;;;;;;;11.75;6.88;;;;;;;0.51;85.40;98054.09;5040117;28;20069;-80
2023/02/05 08:36:06;;;;;;;9.63;6.40;;;;;;;0.80;83.11;98046.56;5031959;28;20049;-80
2023/02/05 08:38:32;;;;;;;10.75;7.28;;;;;;;0.90;79.42;98049.63;5036659;28;20413;-79
2023/02/05 08:41:03;;;;;;;11.98;7.43;;;;;;;1.12;79.69;98042.88;5032403;28;20045;-80
2023/02/05 08:43:29;;;;;;;13.30;6.78;;;;;;;1.23;78.90;98047.53;5047727;28;20052;-83
2023/02/05 08:45:56;;;;;;;10.60;6.50;;;;;;;1.51;78.11;98040.94;5058584;28;20041;-83
2023/02/05 08:48:23;;;;;;;5.93;4.32;;;;;;;1.72;72.76;98027.16;5057582;28;20060;-82
2023/02/05 08:50:50;;;;;;;6.32;3.75;;;;;;;1.85;62.97;98022.69;5064340;28;20051;-81
2023/02/05 08:53:18;;;;;;;5.65;3.20;;;;;;;1.95;63.92;98020.31;5047526;28;20049;-82
2023/02/05 08:55:45;;;;;;;6.35;4.00;;;;;;;2.13;62.68;98012.25;5065778;28;20125;-81
2023/02/05 08:58:12;;;;;;;6.95;4.35;;;;;;;2.04;63.13;98019.81;5057673;28;20029;-81
2023/02/05 09:00:38;;;;;;;7.00;4.18;;;;;;;2.23;64.90;98001.81;5056716;28;20105;-80
2023/02/05 09:03:05;;;;;;;6.38;3.92;;;;;;;2.15;63.49;98004.81;5051397;28;20045;-77
2023/02/05 09:05:32;;;;;;;6.68;4.18;;;;;;;1.86;61.75;98000.16;5043514;28;20059;-77
2023/02/05 09:07:58;;;;;;;4.40;2.35;;;;;;;1.82;61.00;98000.56;5051803;28;20056;-77
2023/02/05 09:10:26;;;;;;;5.07;2.40;;;;;;;1.82;61.57;97995.19;5054845;28;20041;-77
2023/02/05 09:12:53;;;;;;;4.25;2.08;;;;;;;1.87;62.70;97991.03;5053436;28;20055;-77
2023/02/05 09:15:19;;;;;;;6.28;2.35;;;;;;;1.73;61.26;98001.94;5046631;28;20118;-81
2023/02/05 09:17:46;;;;;;;4.55;2.08;;;;;;;1.82;60.99;98005.13;5070769;28;20069;-80
2023/02/05 09:20:12;;;;;;;5.03;2.08;;;;;;;1.70;59.80;97996.97;5075858;28;20041;-81
2023/02/05 09:22:39;;;;;;;4.55;2.00;;;;;;;1.94;59.87;97997.19;5055754;28;20057;-81
2023/02/05 09:25:07;;;;;;;2.75;1.55;;;;;;;1.70;56.80;98002.34;5025893;28;20044;-79
2023/02/05 09:27:35;;;;;;;3.20;1.63;;;;;;;2.01;57.66;98000.63;5029201;28;20049;-77
2023/02/05 09:30:01;;;;;;;3.20;1.63;;;;;;;2.06;57.92;97984.63;5042061;28;20056;-77
2023/02/05 09:32:28;;;;;;;3.30;1.95;;;;;;;1.66;56.87;97995.78;5068506;28;20033;-82
2023/02/05 09:34:55;;;;;;;3.13;1.92;;;;;;;1.67;56.80;97994.75;5065640;28;20053;-78
2023/02/05 09:37:22;;;;;;;2.45;1.30;;;;;;;1.99;53.51;97994.66;5050985;28;20048;-79
2023/02/05 09:39:49;;;;;;;2.03;1.30;;;;;;;2.20;54.84;97991.53;5046433;28;20140;-78
2023/02/05 09:42:25;;;;;;;4.32;1.70;;;;;;;2.41;57.62;97992.94;5054812;28;20049;-80
2023/02/05 09:45:23;;;;;;;3.30;1.83;;;;;;;2.63;57.81;97985.19;5063493;28;20045;-80
2023/02/05 09:48:05;;;;;;;3.85;1.83;;;;;;;2.96;56.60;97981.22;5052690;28;20068;-79
2023/02/05 09:50:32;;;;;;;3.80;2.10;;;;;;;2.93;54.89;97982.50;5063508;28;20132;-83
2023/02/05 09:53:04;;;;;;;3.45;2.13;;;;;;;3.45;53.83;97987.31;5060010;28;20053;-81
2023/02/05 09:55:33;;;;;;;3.53;2.10;;;;;;;4.06;54.57;97978.75;5055723;28;20044;-82
2023/02/05 09:58:06;;;;;;;4.03;2.00;;;;;;;4.51;53.71;97974.56;5046815;28;20053;-79
2023/02/05 10:00:47;;;;;;;3.15;1.95;;;;;;;4.69;51.39;97967.09;5051674;28;20100;-77
2023/02/05 10:03:23;;;;;;;3.08;1.98;;;;;;;5.01;51.90;97963.09;5041961;28;20052;-79
2023/02/05 10:06:06;;;;;;;8.98;2.20;;;;;;;5.13;52.32;97953.88;5024847;28;20045;-78
2023/02/05 10:08:38;;;;;;;;;;;;;;;5.13;52.21;97944.97;5024971;28;20045;-77
2023/02/05 10:11:17;;;;;;;5.22;2.40;;;;;;;5.02;52.74;97932.34;5029604;28;19921;-80
2023/02/05 10:13:46;;;;;;;4.47;2.45;;;;;;;4.48;52.77;97929.19;5054193;28;20056;-79
2023/02/05 10:16:38;;;;;;;5.05;2.47;;;;;;;4.69;53.92;97921.22;5192054;23;20048;-83
2023/02/05 10:19:34;;;;;;;3.97;2.45;;;;;;;5.04;52.88;97911.31;5046077;28;20108;-83
2023/02/05 10:22:17;;;;;;;3.85;2.33;;;;;;;5.79;53.34;97916.25;5034232;28;20049;-83
2023/02/05 10:25:00;;;;;;;2.78;2.03;;;;;;;6.42;49.28;97911.41;5037785;28;20059;-88
2023/02/05 10:27:39;;;;;;;3.78;2.22;;;;;;;6.56;48.87;97898.31;5014704;28;20134;-81
2023/02/05 10:30:13;;;;;;;4.90;2.88;;;;;;;6.44;49.38;97901.16;5030151;28;20773;-86
2023/02/05 10:32:53;;;;;;;4.78;2.80;;;;;;;6.84;48.57;97898.06;5033615;28;20049;-87
2023/02/05 10:35:23;;;;;;;2.72;2.00;;;;;;;6.98;49.04;97895.75;5021978;28;20105;-83
2023/02/05 10:37:56;;;;;;;3.10;2.20;;;;;;;7.39;47.57;97896.91;5021284;28;20050;-85
2023/02/05 10:40:26;;;;;;;4.03;2.38;;;;;;;7.14;45.84;97897.53;5028778;28;20058;-87
2023/02/05 10:43:00;;;;;;;6.38;2.25;;;;;;;6.61;47.04;97893.78;5028893;28;20101;-84
2023/02/05 10:45:31;;;;;;;4.03;2.13;;;;;;;6.47;46.96;97890.66;5031708;28;20056;-85
2023/02/05 10:48:22;;;;;;;2.65;1.73;;;;;;;6.67;49.22;97883.81;5032469;28;20056;-84
2023/02/05 10:50:55;;;;;;;4.03;1.60;;;;;;;6.82;48.67;97881.25;5013483;28;20054;-85
2023/02/05 10:53:25;;;;;;;3.47;1.75;;;;;;;6.86;50.74;97871.56;5027943;28;20059;-83
2023/02/05 10:55:51;;;;;;;19.25;2.20;;;;;;;6.84;48.12;97873.72;5019677;28;20041;-83
2023/02/05 10:58:37;;;;;;;3.08;1.65;;;;;;;6.66;47.73;97880.28;5026943;28;20132;-84
2023/02/05 11:01:06;;;;;;;3.70;1.70;;;;;;;6.73;49.06;97871.94;5018526;28;20053;-84
2023/02/05 11:03:38;;;;;;;6.15;1.77;;;;;;;6.56;50.09;97866.66;5020464;28;20050;-84
2023/02/05 11:06:10;;;;;;;3.55;1.80;;;;;;;6.64;50.53;97874.31;5022385;28;20125;-85
2023/02/05 11:08:40;;;;;;;2.20;1.30;;;;;;;6.29;48.48;97863.94;5027417;28;20054;-84
2023/02/05 11:11:18;;;;;;;5.03;1.50;;;;;;;6.01;49.71;97862.25;5026882;28;20049;-86
2023/02/05 11:13:51;;;;;;;2.55;1.33;;;;;;;5.41;50.55;97855.72;5013115;28;20056;-87
2023/02/05 11:16:18;;;;;;;3.65;1.55;;;;;;;5.16;51.70;97855.34;5036956;28;20053;-83
2023/02/05 11:18:54;;;;;;;2.72;1.60;;;;;;;5.18;52.13;97854.03;5031928;28;20128;-87
2023/02/05 11:21:21;;;;;;;3.65;2.25;;;;;;;4.73;52.75;97854.09;5025160;28;20422;-85
2023/02/05 11:23:55;;;;;;;3.25;1.75;;;;;;;4.82;54.59;97847.25;5027819;28;20117;-82
2023/02/05 11:26:24;;;;;;;4.82;2.00;;;;;;;4.87;53.94;97847.34;5034362;28;20060;-83
2023/02/05 11:28:50;;;;;;;3.58;2.03;;;;;;;4.97;54.78;97844.00;5036391;28;20438;-82
2023/02/05 11:31:25;;;;;;;5.38;1.98;;;;;;;4.97;55.06;97842.09;5023270;28;20050;-85
2023/02/05 11:34:10;;;;;;;6.50;1.95;;;;;;;4.94;58.09;97850.69;5031859;28;20076;-86
2023/02/05 11:36:39;;;;;;;5.95;2.17;;;;;;;4.98;54.30;97851.84;5021525;28;20069;-84
2023/02/05 11:39:07;;;;;;;4.18;2.00;;;;;;;4.63;53.87;97848.53;5032949;28;20077;-84
2023/02/05 11:41:47;;;;;;;4.80;2.00;;;;;;;4.36;57.06;97849.13;5044204;28;20124;-83
2023/02/05 11:44:19;;;;;;;3.55;1.70;;;;;;;4.42;56.67;97848.16;5020540;28;20107;-87
2023/02/05 11:46:47;;;;;;;3.55;1.65;;;;;;;4.65;59.37;97851.81;5034685;28;20045;-84
2023/02/05 11:49:22;;;;;;;4.40;1.75;;;;;;;4.67;55.51;97855.09;5034330;28;20070;-84
2023/02/05 11:51:52;;;;;;;4.25;1.80;;;;;;;4.94;55.90;97853.38;5032036;28;20069;-85